Time;durP1;ratioP1;P1;durP2;ratioP2;P2;SDS_P1;SDS_P2;PMS_P1;PMS_P2;Temp;Humidity;BMP_temperature;BMP_pressure;BME280_temperature;BME280_humidity;BME280_pressure;Samples;Min_cycle;Max_cycle;Signal;HPM_P1;HPM_P2
2022/05/08 00:02:19;;;;;;;11.07;9.90;;;14.80;99.90;;;;;;5057144;28;20497;-42
2022/05/08 00:04:45;;;;;;;10.07;9.00;;;14.80;99.90;;;;;;5067770;28;20909;-43
2022/05/08 00:07:12;;;;;;;10.10;8.50;;;14.70;99.90;;;;;;5069498;28;20822;-43
2022/05/08 00:09:37;;;;;;;10.40;8.47;;;14.70;99.90;;;;;;5069218;28;20512;-43
2022/05/08 00:12:04;;;;;;;9.70;8.70;;;14.60;99.90;;;;;;5084810;28;20526;-42
2022/05/08 00:14:29;;;;;;;8.27;7.33;;;14.60;99.90;;;;;;5069580;28;20197;-42
2022/05/08 00:16:55;;;;;;;9.80;7.33;;;14.60;99.90;;;;;;5062521;28;20794;-42
2022/05/08 00:19:21;;;;;;;8.27;7.13;;;14.60;99.90;;;;;;5067236;28;20189;-40
2022/05/08 00:21:46;;;;;;;8.27;6.50;;;14.50;99.90;;;;;;5068409;28;20227;-42
2022/05/08 00:24:12;;;;;;;9.43;6.67;;;14.60;99.90;;;;;;5069350;28;20678;-43
2022/05/08 00:26:38;;;;;;;9.10;6.47;;;14.50;99.90;;;;;;5069409;28;20200;-43
2022/05/08 00:29:03;;;;;;;8.73;6.70;;;14.40;99.90;;;;;;5069243;28;20215;-42
2022/05/08 00:31:29;;;;;;;7.57;6.33;;;14.40;99.90;;;;;;5063055;28;20568;-43
2022/05/08 00:33:55;;;;;;;6.40;5.13;;;14.40;99.90;;;;;;5064667;28;20248;-42
2022/05/08 00:36:21;;;;;;;10.37;6.50;;;14.30;99.90;;;;;;5069342;28;20192;-43
2022/05/08 00:38:47;;;;;;;5.70;5.10;;;14.30;99.90;;;;;;5069342;28;20770;-42
2022/05/08 00:41:12;;;;;;;6.40;5.20;;;14.30;99.90;;;;;;5068610;28;20472;-42
2022/05/08 00:43:41;;;;;;;7.03;5.10;;;14.30;99.90;;;;;;5069019;28;20268;-43
2022/05/08 00:46:09;;;;;;;8.03;6.20;;;14.30;99.90;;;;;;5066345;28;20217;-43
2022/05/08 00:48:35;;;;;;;5.87;5.00;;;14.30;99.90;;;;;;5066120;28;20797;-42
2022/05/08 00:51:08;;;;;;;6.50;5.40;;;14.10;99.90;;;;;;5068442;28;20419;-43
2022/05/08 00:53:36;;;;;;;6.87;5.03;;;14.10;99.90;;;;;;5068946;28;20426;-43
2022/05/08 00:56:05;;;;;;;8.40;5.30;;;14.10;99.90;;;;;;5068968;28;20429;-42
2022/05/08 00:58:31;;;;;;;6.77;5.37;;;14.10;99.90;;;;;;5055736;28;20510;-42
2022/05/08 01:00:58;;;;;;;5.93;5.33;;;14.10;99.90;;;;;;5068208;28;20423;-42
2022/05/08 01:03:24;;;;;;;5.50;4.90;;;14.10;99.90;;;;;;5058191;28;20781;-43
2022/05/08 01:05:52;;;;;;;6.40;5.13;;;14.10;99.90;;;;;;5068765;28;20427;-42
2022/05/08 01:08:18;;;;;;;13.27;5.93;;;14.00;99.90;;;;;;5068744;28;20197;-41
2022/05/08 01:10:44;;;;;;;7.97;5.90;;;13.90;99.90;;;;;;5068123;28;20419;-42
2022/05/08 01:13:09;;;;;;;9.90;6.30;;;13.80;99.90;;;;;;5068661;28;20419;-43
2022/05/08 01:15:46;;;;;;;6.30;5.53;;;13.80;99.90;;;;;;5068661;28;20185;-42
2022/05/08 01:18:13;;;;;;;9.00;5.90;;;13.70;99.90;;;;;;5064350;28;20559;-41
2022/05/08 01:20:43;;;;;;;7.90;5.40;;;13.70;99.90;;;;;;5070637;28;20930;-41
2022/05/08 01:23:10;;;;;;;7.30;6.10;;;13.70;99.90;;;;;;5072951;28;20411;-43
2022/05/08 01:25:54;;;;;;;8.03;6.30;;;13.70;99.90;;;;;;5072489;28;20477;-41
2022/05/08 01:28:21;;;;;;;10.60;6.23;;;13.60;99.90;;;;;;5072723;28;20523;-42
2022/05/08 01:30:50;;;;;;;9.23;6.27;;;13.60;99.90;;;;;;5072060;28;20420;-43
2022/05/08 01:33:17;;;;;;;10.80;6.90;;;13.70;99.90;;;;;;5063654;28;20487;-42
2022/05/08 01:35:43;;;;;;;8.00;6.57;;;13.70;99.90;;;;;;5072423;28;20431;-43
2022/05/08 01:38:10;;;;;;;7.97;7.00;;;13.70;99.90;;;;;;5072782;28;20431;-43
2022/05/08 01:40:36;;;;;;;7.47;6.50;;;13.70;99.90;;;;;;5071401;28;20862;-43
2022/05/08 01:43:03;;;;;;;7.23;6.53;;;13.70;99.90;;;;;;5072597;28;20517;-43
2022/05/08 01:45:29;;;;;;;10.30;6.80;;;13.70;99.90;;;;;;5071636;28;20419;-41
2022/05/08 01:50:39;;;;;;;7.97;6.37;;;13.70;99.90;;;;;;5069773;28;20942;-43
2022/05/08 01:53:05;;;;;;;9.73;7.07;;;13.50;99.90;;;;;;5071906;28;20936;-43
2022/05/08 01:55:31;;;;;;;8.30;6.57;;;13.50;99.90;;;;;;5072100;28;20419;-43
2022/05/08 01:57:58;;;;;;;10.00;7.43;;;13.40;99.90;;;;;;5072223;28;20533;-40
2022/05/08 02:00:25;;;;;;;10.10;7.67;;;13.40;99.90;;;;;;5071532;28;20637;-41
2022/05/08 02:02:52;;;;;;;12.60;7.87;;;13.40;99.90;;;;;;5062460;28;20446;-43
2022/05/08 02:05:21;;;;;;;11.70;8.30;;;13.30;99.90;;;;;;5071325;28;20836;-42
2022/05/08 02:07:48;;;;;;;10.90;8.03;;;13.30;99.90;;;;;;5071486;28;20941;-41
2022/05/08 02:10:15;;;;;;;10.83;7.97;;;13.30;99.90;;;;;;5071407;28;20603;-42
2022/05/08 02:12:41;;;;;;;16.43;9.40;;;13.20;99.90;;;;;;5071555;28;20423;-42
2022/05/08 02:15:08;;;;;;;14.40;9.57;;;13.20;99.90;;;;;;5071904;28;20427;-43
2022/05/08 02:17:35;;;;;;;10.43;8.40;;;13.10;99.90;;;;;;5066000;28;20439;-43
2022/05/08 02:20:02;;;;;;;11.87;9.07;;;13.00;99.90;;;;;;5064684;28;20427;-42
2022/05/08 02:22:27;;;;;;;11.37;9.27;;;13.00;99.90;;;;;;5069877;28;20477;-43
2022/05/08 02:24:53;;;;;;;13.07;8.87;;;13.00;99.90;;;;;;5071709;28;20423;-41
2022/05/08 02:27:19;;;;;;;13.77;10.10;;;12.90;99.90;;;;;;5071118;28;20674;-42
2022/05/08 02:29:48;;;;;;;14.37;10.77;;;12.90;99.90;;;;;;5070575;28;20316;-42
2022/05/08 02:32:14;;;;;;;18.07;13.73;;;12.80;99.90;;;;;;5065467;28;20215;-42
2022/05/08 02:34:40;;;;;;;17.33;12.80;;;12.80;99.90;;;;;;5063749;28;20435;-42
2022/05/08 02:37:06;;;;;;;19.63;13.77;;;12.80;99.90;;;;;;5071112;28;20488;-42
2022/05/08 02:39:32;;;;;;;16.13;13.60;;;12.80;99.90;;;;;;5071407;28;20438;-43
2022/05/08 02:41:58;;;;;;;18.53;14.03;;;12.70;99.90;;;;;;5071258;28;20246;-43
2022/05/08 02:44:23;;;;;;;18.00;13.87;;;12.70;99.90;;;;;;5071305;28;20234;-41
2022/05/08 02:46:49;;;;;;;19.67;15.33;;;12.60;99.90;;;;;;5069611;28;20528;-42
2022/05/08 02:49:15;;;;;;;17.10;14.20;;;12.70;99.90;;;;;;5056684;28;20312;-43
2022/05/08 02:51:41;;;;;;;15.00;13.27;;;12.60;99.90;;;;;;5070603;28;20212;-41
2022/05/08 02:54:07;;;;;;;16.50;12.97;;;12.60;99.90;;;;;;5071096;28;20918;-41
2022/05/08 02:59:17;;;;;;;15.00;12.33;;;12.60;99.90;;;;;;5069683;28;20419;-41
2022/05/08 03:01:43;;;;;;;15.23;12.07;;;12.50;99.90;;;;;;5070047;28;20505;-42
2022/05/08 03:04:08;;;;;;;16.03;12.93;;;12.50;99.90;;;;;;5062869;28;21240;-42
2022/05/08 03:06:34;;;;;;;17.30;14.00;;;12.50;99.90;;;;;;5070415;28;20590;-42
2022/05/08 03:09:00;;;;;;;19.70;15.10;;;12.50;99.90;;;;;;5070542;28;20220;-42
2022/05/08 03:11:26;;;;;;;20.60;15.13;;;12.50;99.90;;;;;;5069856;28;20564;-42
2022/05/08 03:13:52;;;;;;;19.20;15.47;;;12.40;99.90;;;;;;5070669;28;20205;-43
2022/05/08 03:16:18;;;;;;;25.50;17.13;;;12.40;99.90;;;;;;5085920;28;20959;-43
2022/05/08 03:18:47;;;;;;;19.50;14.83;;;12.40;99.90;;;;;;5060254;28;20523;-43
2022/05/08 03:21:14;;;;;;;19.37;14.10;;;12.40;99.90;;;;;;5070022;28;20522;-43
2022/05/08 03:23:42;;;;;;;17.27;15.37;;;12.30;99.90;;;;;;5070462;28;20423;-43
2022/05/08 03:26:08;;;;;;;17.93;14.47;;;12.30;99.90;;;;;;5070490;28;20522;-43
2022/05/08 03:28:35;;;;;;;19.67;14.90;;;12.30;99.90;;;;;;5070421;28;20880;-42
2022/05/08 03:31:02;;;;;;;19.07;15.67;;;12.30;99.90;;;;;;5069647;28;20573;-43
2022/05/08 03:33:28;;;;;;;26.10;18.30;;;12.30;99.90;;;;;;5061483;28;20497;-43
2022/05/08 03:35:55;;;;;;;22.97;17.63;;;12.20;99.90;;;;;;5070072;28;20407;-41
2022/05/08 03:38:21;;;;;;;24.00;17.07;;;12.30;99.90;;;;;;5070224;28;20504;-42
2022/05/08 03:40:47;;;;;;;21.83;16.50;;;12.30;99.90;;;;;;5068318;28;20423;-42
2022/05/08 03:43:13;;;;;;;23.17;15.93;;;12.20;99.90;;;;;;5070133;28;20431;-43
2022/05/08 03:45:39;;;;;;;20.00;15.00;;;12.20;99.90;;;;;;5068445;28;20427;-43
2022/05/08 03:48:05;;;;;;;19.33;15.20;;;12.20;99.90;;;;;;5064368;28;20475;-43
2022/05/08 03:50:31;;;;;;;22.10;15.33;;;12.00;99.90;;;;;;5069351;28;20419;-42
2022/05/08 03:52:58;;;;;;;18.77;13.67;;;11.90;99.90;;;;;;5069918;28;20790;-42
2022/05/08 03:55:24;;;;;;;16.93;12.50;;;12.00;99.90;;;;;;5070005;28;20181;-42
2022/05/08 03:57:50;;;;;;;16.17;11.90;;;11.90;99.90;;;;;;5069685;28;20791;-42
2022/05/08 04:00:17;;;;;;;17.60;10.17;;;12.00;99.90;;;;;;5069089;28;20430;-40
2022/05/08 04:02:43;;;;;;;14.67;10.33;;;12.00;99.90;;;;;;5067239;28;20564;-42
2022/05/08 04:05:11;;;;;;;15.77;10.70;;;12.00;99.90;;;;;;5064345;28;20419;-43
2022/05/08 04:07:40;;;;;;;14.57;10.07;;;12.00;99.90;;;;;;5069362;28;20457;-42
2022/05/08 04:10:07;;;;;;;16.30;9.33;;;11.90;99.90;;;;;;5067786;28;20506;-42
2022/05/08 04:12:34;;;;;;;14.80;9.93;;;12.00;99.90;;;;;;5069566;28;20423;-42
2022/05/08 04:14:59;;;;;;;18.53;9.10;;;11.90;99.90;;;;;;5068271;28;20929;-42
2022/05/08 04:17:28;;;;;;;15.07;9.43;;;11.90;99.90;;;;;;5068639;28;20416;-42
2022/05/08 04:19:55;;;;;;;17.47;8.80;;;11.80;99.90;;;;;;5060835;28;20426;-43
2022/05/08 04:25:07;;;;;;;14.93;8.80;;;11.80;99.90;;;;;;5068731;28;20441;-42
2022/05/08 04:27:36;;;;;;;13.70;7.30;;;11.80;99.90;;;;;;5067831;28;20802;-43
2022/05/08 04:30:03;;;;;;;12.50;7.33;;;11.80;99.90;;;;;;5068882;28;20419;-40
2022/05/08 04:32:29;;;;;;;11.20;7.70;;;11.60;99.90;;;;;;5069137;28;20418;-43
2022/05/08 04:34:54;;;;;;;18.53;7.63;;;11.70;99.90;;;;;;5053601;28;20439;-42
2022/05/08 04:37:20;;;;;;;13.53;7.83;;;11.70;99.90;;;;;;5068977;28;20251;-43
2022/05/08 04:39:45;;;;;;;13.63;7.17;;;11.80;99.90;;;;;;5068542;28;20185;-43
2022/05/08 04:42:11;;;;;;;14.97;6.87;;;11.80;99.90;;;;;;5068878;28;20682;-42
2022/05/08 04:44:37;;;;;;;15.20;6.30;;;11.80;99.90;;;;;;5069281;28;20196;-43
2022/05/08 04:47:03;;;;;;;13.60;6.80;;;11.70;99.90;;;;;;5068119;28;20180;-42
2022/05/08 04:49:29;;;;;;;15.87;7.37;;;11.70;99.90;;;;;;5056890;28;20243;-42
2022/05/08 04:51:55;;;;;;;11.13;6.90;;;11.60;99.90;;;;;;5067899;28;20426;-43
2022/05/08 04:54:24;;;;;;;10.03;6.37;;;11.60;99.90;;;;;;5068854;28;20428;-43
2022/05/08 04:56:49;;;;;;;9.97;5.70;;;11.60;99.90;;;;;;5068843;28;20876;-42
2022/05/08 04:59:15;;;;;;;14.43;6.50;;;11.50;99.90;;;;;;5069011;28;20512;-43
2022/05/08 05:01:41;;;;;;;15.20;6.07;;;11.50;99.90;;;;;;5067636;28;20213;-43
2022/05/08 05:04:07;;;;;;;16.93;5.33;;;11.40;99.90;;;;;;5058577;28;20467;-42
2022/05/08 05:06:33;;;;;;;12.00;6.33;;;11.40;99.90;;;;;;5068485;28;20188;-42
2022/05/08 05:08:58;;;;;;;13.17;6.90;;;11.40;99.90;;;;;;5068385;28;20219;-41
2022/05/08 05:11:24;;;;;;;15.63;4.93;;;11.40;99.90;;;;;;5066891;28;20181;-42
2022/05/08 05:13:50;;;;;;;12.40;6.00;;;11.40;99.90;;;;;;5068825;28;20184;-41
2022/05/08 05:16:15;;;;;;;18.00;6.70;;;11.50;99.90;;;;;;5068949;28;20181;-41
2022/05/08 05:18:41;;;;;;;13.60;5.70;;;11.40;99.90;;;;;;5062260;28;20269;-43
2022/05/08 05:21:06;;;;;;;13.60;6.40;;;11.50;99.90;;;;;;5062216;28;20220;-41
2022/05/08 05:23:36;;;;;;;16.30;6.90;;;11.50;99.90;;;;;;5068136;28;20536;-42
2022/05/08 05:26:02;;;;;;;13.77;6.07;;;11.40;99.90;;;;;;5068485;28;20185;-42
2022/05/08 05:28:29;;;;;;;19.43;5.60;;;11.40;99.90;;;;;;5068879;28;20470;-41
2022/05/08 05:30:55;;;;;;;14.53;5.10;;;11.30;99.90;;;;;;5068013;28;20419;-41
2022/05/08 05:33:20;;;;;;;9.90;5.47;;;11.50;99.90;;;;;;5063961;28;21008;-42
2022/05/08 05:35:46;;;;;;;10.47;4.40;;;11.50;99.90;;;;;;5063886;28;20181;-41
2022/05/08 05:38:12;;;;;;;9.50;5.20;;;11.60;99.90;;;;;;5068270;28;20599;-41
2022/05/08 05:40:37;;;;;;;12.23;5.77;;;11.60;99.90;;;;;;5067287;28;20601;-43
2022/05/08 05:43:03;;;;;;;14.67;6.37;;;11.70;99.90;;;;;;5068410;28;20203;-43
2022/05/08 05:45:29;;;;;;;21.40;5.80;;;11.70;99.90;;;;;;5068518;28;20215;-43
2022/05/08 05:47:54;;;;;;;12.57;5.13;;;11.60;99.90;;;;;;5067969;28;20212;-42
2022/05/08 05:50:24;;;;;;;10.30;4.60;;;11.60;99.90;;;;;;5053788;28;20200;-42
2022/05/08 05:52:50;;;;;;;12.93;5.20;;;11.60;99.90;;;;;;5068149;28;20185;-43
2022/05/08 05:55:16;;;;;;;14.57;5.47;;;11.50;99.90;;;;;;5068774;28;20416;-41
2022/05/08 05:57:43;;;;;;;10.67;5.17;;;11.50;99.90;;;;;;5068260;28;20794;-42
2022/05/08 06:00:12;;;;;;;16.97;5.67;;;11.60;99.90;;;;;;5069859;28;20419;-42
2022/05/08 06:02:40;;;;;;;13.33;4.97;;;11.60;99.90;;;;;;5066821;28;20424;-39
2022/05/08 06:05:06;;;;;;;14.90;5.60;;;11.60;99.90;;;;;;5064133;28;20427;-40
2022/05/08 06:07:33;;;;;;;8.63;5.07;;;11.60;99.90;;;;;;5071823;28;20410;-43
2022/05/08 06:09:59;;;;;;;17.10;6.63;;;11.70;99.90;;;;;;5071347;28;20471;-43
2022/05/08 06:12:25;;;;;;;13.17;5.23;;;11.70;99.90;;;;;;5071772;28;20416;-43
2022/05/08 06:14:50;;;;;;;10.67;4.83;;;11.80;99.90;;;;;;5071990;28;20427;-42
2022/05/08 06:17:16;;;;;;;14.67;5.20;;;11.70;99.90;;;;;;5071716;28;20635;-41
2022/05/08 06:19:42;;;;;;;15.13;4.90;;;11.70;99.90;;;;;;5064061;28;20205;-42
2022/05/08 06:22:08;;;;;;;16.67;5.27;;;11.60;99.90;;;;;;5071594;28;20197;-42
2022/05/08 06:24:35;;;;;;;16.60;4.97;;;11.70;99.90;;;;;;5071971;28;20189;-42
2022/05/08 06:27:01;;;;;;;15.87;5.27;;;11.70;99.90;;;;;;5071489;28;20201;-43
2022/05/08 06:29:26;;;;;;;20.37;6.07;;;11.70;99.90;;;;;;5071669;28;20468;-41
2022/05/08 06:31:53;;;;;;;11.00;4.60;;;11.60;99.90;;;;;;5070893;28;20196;-42
2022/05/08 06:34:19;;;;;;;16.97;5.27;;;11.70;99.90;;;;;;5063270;28;20216;-43
2022/05/08 06:36:45;;;;;;;17.07;5.17;;;11.70;99.90;;;;;;5069599;28;20434;-43
2022/05/08 06:39:13;;;;;;;12.90;5.10;;;11.70;99.90;;;;;;5071292;28;20651;-43
2022/05/08 06:41:39;;;;;;;9.93;5.00;;;11.70;99.90;;;;;;5074617;28;20423;-43
2022/05/08 06:44:05;;;;;;;12.47;4.10;;;11.70;99.90;;;;;;5071141;28;20421;-42
2022/05/08 06:46:32;;;;;;;12.20;4.90;;;11.70;99.90;;;;;;5069187;28;20480;-42
2022/05/08 06:49:01;;;;;;;11.73;5.37;;;11.80;99.90;;;;;;5069529;28;20467;-42
2022/05/08 06:51:27;;;;;;;16.47;6.00;;;11.80;99.90;;;;;;5065600;28;20805;-42
2022/05/08 06:53:52;;;;;;;10.53;4.60;;;11.80;99.90;;;;;;5071077;28;20435;-43
2022/05/08 06:56:18;;;;;;;14.30;4.67;;;11.80;99.90;;;;;;5071084;28;20221;-40
2022/05/08 07:01:34;;;;;;;13.07;5.50;;;12.00;99.90;;;;;;5070148;28;20195;-41
2022/05/08 07:04:02;;;;;;;14.70;4.70;;;12.00;99.90;;;;;;5066554;28;20502;-42
2022/05/08 07:06:28;;;;;;;12.33;5.07;;;12.00;99.90;;;;;;5062531;28;21021;-43
2022/05/08 07:08:54;;;;;;;10.93;5.07;;;12.10;99.90;;;;;;5069327;28;20691;-43
2022/05/08 07:11:20;;;;;;;9.93;4.70;;;12.10;99.90;;;;;;5085695;28;20427;-42
2022/05/08 07:13:45;;;;;;;10.37;4.60;;;12.10;99.90;;;;;;5070477;28;20796;-40
2022/05/08 07:16:11;;;;;;;11.93;4.77;;;12.10;99.90;;;;;;5070630;28;20896;-42
2022/05/08 07:18:37;;;;;;;16.30;4.87;;;12.10;99.90;;;;;;5069930;28;20193;-43
2022/05/08 07:21:04;;;;;;;14.10;4.47;;;12.10;99.90;;;;;;5059672;28;20201;-43
2022/05/08 07:23:31;;;;;;;13.50;4.70;;;12.20;99.90;;;;;;5085745;28;20431;-42
2022/05/08 07:25:57;;;;;;;13.83;5.50;;;12.30;99.90;;;;;;5068247;28;20439;-42
2022/05/08 07:28:23;;;;;;;20.60;4.50;;;12.40;99.90;;;;;;5075296;28;20538;-42
2022/05/08 07:30:49;;;;;;;16.50;5.70;;;12.50;99.90;;;;;;5069124;28;20423;-43
2022/05/08 07:33:16;;;;;;;12.63;5.53;;;12.60;99.90;;;;;;5070069;28;20216;-43
2022/05/08 07:38:30;;;;;;;10.30;5.30;;;12.70;99.90;;;;;;5061116;28;20447;-43
2022/05/08 07:40:57;;;;;;;9.87;4.47;;;12.70;99.90;;;;;;5061570;28;20433;-42
2022/05/08 07:43:23;;;;;;;10.67;4.70;;;12.80;99.90;;;;;;5070124;28;20786;-43
2022/05/08 07:45:49;;;;;;;12.47;4.20;;;12.80;99.90;;;;;;5067500;28;20522;-43
2022/05/08 07:48:16;;;;;;;11.60;5.00;;;12.90;99.90;;;;;;5069812;28;20889;-42
2022/05/08 07:50:42;;;;;;;12.57;4.80;;;12.90;99.90;;;;;;5061061;28;20190;-42
2022/05/08 07:53:08;;;;;;;11.60;5.03;;;13.00;99.90;;;;;;5074285;28;20419;-43
2022/05/08 07:55:34;;;;;;;10.60;4.90;;;13.10;99.90;;;;;;5067229;28;20423;-43
2022/05/08 07:58:00;;;;;;;11.83;5.30;;;13.20;99.90;;;;;;5067107;28;20450;-42
2022/05/08 08:00:26;;;;;;;8.73;4.00;;;13.30;99.90;;;;;;5048958;28;20201;-40
2022/05/08 08:02:52;;;;;;;12.13;4.03;;;13.40;99.90;;;;;;5067071;28;20443;-43
2022/05/08 08:05:17;;;;;;;12.77;4.57;;;13.40;99.90;;;;;;5060132;28;20440;-42
2022/05/08 08:07:43;;;;;;;10.70;4.70;;;13.40;99.90;;;;;;5067208;28;20802;-42
2022/05/08 08:10:09;;;;;;;8.73;3.83;;;13.40;99.90;;;;;;5066732;28;20809;-42
2022/05/08 08:12:35;;;;;;;15.50;5.43;;;13.50;99.90;;;;;;5069170;28;20203;-42
2022/05/08 08:15:01;;;;;;;11.50;4.67;;;13.50;99.90;;;;;;5067610;28;20201;-43
2022/05/08 08:17:27;;;;;;;10.43;5.37;;;13.60;99.90;;;;;;5061894;28;20211;-42
2022/05/08 08:19:54;;;;;;;14.40;4.70;;;13.60;99.90;;;;;;5052348;28;20443;-42
2022/05/08 08:22:19;;;;;;;9.13;4.83;;;13.70;99.90;;;;;;5064164;28;21059;-40
2022/05/08 08:24:46;;;;;;;10.10;4.30;;;13.80;99.90;;;;;;5068525;28;20500;-41
2022/05/08 08:27:12;;;;;;;11.50;5.50;;;13.90;99.90;;;;;;5065511;28;20445;-42
2022/05/08 08:29:38;;;;;;;12.67;4.87;;;13.90;99.90;;;;;;5049747;28;20236;-41
2022/05/08 08:32:04;;;;;;;9.03;4.30;;;14.00;99.90;;;;;;5067233;28;20594;-41
2022/05/08 08:34:29;;;;;;;10.90;5.30;;;14.00;99.90;;;;;;5064688;28;20193;-41
2022/05/08 08:36:55;;;;;;;10.57;4.40;;;14.00;99.90;;;;;;5062148;28;20272;-41
2022/05/08 08:39:21;;;;;;;13.23;4.60;;;14.00;99.90;;;;;;5063600;28;20188;-41
2022/05/08 08:42:02;;;;;;;7.10;3.87;;;14.00;99.90;;;;;;5067405;28;20430;-42
2022/05/08 08:50:17;;;;;;;13.53;4.43;;;14.30;99.90;;;;;;5023748;28;20464;-43
2022/05/08 08:52:45;;;;;;;9.83;4.67;;;14.40;99.90;;;;;;5037796;28;20427;-42
2022/05/08 08:55:11;;;;;;;9.00;4.37;;;14.50;99.90;;;;;;5067916;28;20419;-43
2022/05/08 08:57:38;;;;;;;13.20;5.30;;;14.60;99.90;;;;;;5068339;28;20534;-43
2022/05/08 09:00:05;;;;;;;11.73;5.40;;;14.60;99.90;;;;;;5067505;28;20935;-41
2022/05/08 09:02:31;;;;;;;8.17;5.60;;;14.60;99.90;;;;;;5067655;28;20447;-43
2022/05/08 09:04:58;;;;;;;11.93;5.27;;;14.60;99.90;;;;;;5061313;28;20494;-43
2022/05/08 09:07:38;;;;;;;9.93;5.37;;;14.60;99.90;;;;;;5063841;28;20536;-41
2022/05/08 09:10:11;;;;;;;10.17;4.97;;;14.70;99.90;;;;;;5059260;28;20474;-42
2022/05/08 09:12:43;;;;;;;11.53;6.13;;;14.80;99.90;;;;;;5067868;28;20420;-43
2022/05/08 09:15:35;;;;;;;9.17;4.93;;;14.80;99.90;;;;;;5083082;28;20786;-42
2022/05/08 09:18:12;;;;;;;11.80;5.50;;;14.90;99.90;;;;;;5057856;28;20427;-42
2022/05/08 09:20:41;;;;;;;10.87;5.63;;;14.90;99.90;;;;;;5067257;28;20428;-43
2022/05/08 09:23:13;;;;;;;11.50;5.03;;;15.00;99.90;;;;;;5069331;28;20506;-42
2022/05/08 09:25:45;;;;;;;10.60;5.27;;;15.00;99.90;;;;;;5067266;28;20434;-43
2022/05/08 09:28:16;;;;;;;10.50;4.77;;;15.00;99.90;;;;;;5068040;28;20552;-43
2022/05/08 09:30:56;;;;;;;8.33;5.13;;;15.00;99.90;;;;;;5067426;28;20421;-42
2022/05/08 09:33:54;;;;;;;11.60;5.00;;;15.00;99.90;;;;;;5067417;28;20457;-42
2022/05/08 09:36:21;;;;;;;10.57;5.37;;;15.10;99.90;;;;;;5055105;28;20431;-43
2022/05/08 09:38:55;;;;;;;9.73;4.60;;;15.20;99.90;;;;;;5070172;28;20476;-42
2022/05/08 09:41:26;;;;;;;13.70;5.40;;;15.20;99.90;;;;;;5069740;28;20492;-43
2022/05/08 09:43:57;;;;;;;13.73;5.03;;;15.20;99.90;;;;;;5070754;28;20434;-43
2022/05/08 09:46:23;;;;;;;9.37;4.90;;;15.30;99.90;;;;;;5070787;28;20782;-43
2022/05/08 09:48:49;;;;;;;7.90;4.87;;;15.30;99.90;;;;;;5068516;28;20490;-43
2022/05/08 09:51:16;;;;;;;13.03;5.53;;;15.40;99.90;;;;;;5062507;28;20926;-42
2022/05/08 09:53:43;;;;;;;12.17;5.23;;;15.30;99.90;;;;;;5070329;28;20433;-43
2022/05/08 09:56:11;;;;;;;12.27;6.13;;;15.40;99.90;;;;;;5070020;28;22250;-42
2022/05/08 09:58:40;;;;;;;11.17;5.70;;;15.40;99.90;;;;;;5070250;28;20442;-43
2022/05/08 10:01:07;;;;;;;9.43;4.27;;;15.40;99.90;;;;;;5070853;28;20477;-43
2022/05/08 10:03:33;;;;;;;7.67;4.57;;;15.40;99.90;;;;;;5071238;28;20870;-42
2022/05/08 10:06:02;;;;;;;7.77;4.70;;;15.50;99.90;;;;;;5064866;28;20447;-43
2022/05/08 10:08:33;;;;;;;7.50;4.60;;;15.50;99.90;;;;;;5064006;28;20512;-42
2022/05/08 10:13:56;;;;;;;10.40;5.17;;;15.50;99.90;;;;;;5067851;28;20435;-42
2022/05/08 10:16:45;;;;;;;10.43;4.83;;;15.50;99.90;;;;;;5069234;28;20886;-42
2022/05/08 10:19:21;;;;;;;9.47;4.47;;;15.60;99.90;;;;;;5072435;28;20440;-42
2022/05/08 10:22:06;;;;;;;13.37;5.97;;;15.70;98.70;;;;;;5074049;28;20984;-42
2022/05/08 10:24:43;;;;;;;10.17;5.40;;;15.70;99.00;;;;;;5068868;28;20457;-42
2022/05/08 10:27:16;;;;;;;9.57;4.93;;;15.80;99.00;;;;;;5070465;28;20496;-41
2022/05/08 10:29:48;;;;;;;9.30;5.40;;;15.90;99.90;;;;;;5069868;28;20869;-42
2022/05/08 10:32:34;;;;;;;12.13;5.30;;;16.10;99.90;;;;;;5065395;28;20525;-42
2022/05/08 10:35:14;;;;;;;17.27;6.40;;;16.20;99.90;;;;;;5071215;28;20423;-43
2022/05/08 10:37:42;;;;;;;10.63;5.40;;;16.20;99.70;;;;;;5062342;28;20415;-42
2022/05/08 10:40:28;;;;;;;11.60;4.87;;;16.30;99.90;;;;;;5070688;28;20910;-43
2022/05/08 10:43:00;;;;;;;8.37;4.37;;;16.40;99.90;;;;;;5062797;28;20641;-43
2022/05/08 10:45:46;;;;;;;8.97;4.40;;;16.60;99.90;;;;;;5053872;28;20978;-43
2022/05/08 10:48:26;;;;;;;11.02;5.57;;;16.70;98.70;;;;;;5065858;28;20932;-42
2022/05/08 10:50:53;;;;;;;11.30;5.57;;;16.80;99.70;;;;;;5066386;28;20173;-43
2022/05/08 10:53:30;;;;;;;9.17;4.97;;;16.80;99.10;;;;;;5069321;28;20514;-40
2022/05/08 10:56:04;;;;;;;8.90;5.50;;;16.80;98.80;;;;;;5069386;28;20496;-42
2022/05/08 10:58:31;;;;;;;11.00;5.43;;;16.70;98.70;;;;;;5069176;28;20526;-42
2022/05/08 11:01:03;;;;;;;9.90;5.40;;;16.60;98.70;;;;;;5068666;28;20488;-40
2022/05/08 11:03:29;;;;;;;9.50;4.70;;;16.70;98.60;;;;;;5068517;28;20427;-41
2022/05/08 11:05:56;;;;;;;12.47;6.03;;;16.60;98.70;;;;;;5068770;28;20450;-40
2022/05/08 11:08:31;;;;;;;8.63;4.80;;;16.60;99.40;;;;;;5068259;28;20551;-41
2022/05/08 11:11:04;;;;;;;10.50;5.27;;;16.60;99.30;;;;;;5069779;28;20448;-43
2022/05/08 11:13:47;;;;;;;18.60;6.80;;;16.60;99.00;;;;;;5067927;28;20537;-42
2022/05/08 11:16:29;;;;;;;10.57;4.80;;;16.50;99.30;;;;;;5067253;28;20446;-42
2022/05/08 11:18:58;;;;;;;10.97;4.97;;;16.50;99.50;;;;;;5068442;28;20415;-42
2022/05/08 11:21:25;;;;;;;9.37;5.07;;;16.60;99.60;;;;;;5064170;28;20545;-43
2022/05/08 11:23:50;;;;;;;11.83;4.70;;;16.70;99.10;;;;;;5067077;28;20431;-42
2022/05/08 11:26:16;;;;;;;7.00;4.97;;;16.80;98.70;;;;;;5069770;28;20423;-40
2022/05/08 11:28:47;;;;;;;9.47;5.00;;;17.00;98.80;;;;;;5073394;28;20680;-41
2022/05/08 11:31:15;;;;;;;6.40;4.40;;;17.10;99.30;;;;;;5070086;28;20808;-42
2022/05/08 11:36:31;;;;;;;8.60;5.07;;;17.10;99.30;;;;;;5072128;28;20407;-43
2022/05/08 11:38:59;;;;;;;8.70;5.10;;;17.20;99.90;;;;;;5072696;28;20427;-42
2022/05/08 11:41:34;;;;;;;6.83;4.57;;;17.30;99.00;;;;;;5068196;28;20519;-42
2022/05/08 11:44:23;;;;;;;6.60;4.23;;;17.40;98.90;;;;;;5066007;28;20447;-40
2022/05/08 11:46:56;;;;;;;11.40;4.43;;;17.50;99.20;;;;;;5066896;28;20439;-42
2022/05/08 11:49:27;;;;;;;7.20;4.20;;;17.50;98.10;;;;;;5066415;28;21126;-41
2022/05/08 11:51:56;;;;;;;7.80;4.20;;;17.60;98.00;;;;;;5063381;28;20438;-42
2022/05/08 11:54:30;;;;;;;7.40;4.30;;;17.60;97.40;;;;;;5067229;28;20432;-42
2022/05/08 11:57:16;;;;;;;6.27;4.33;;;17.60;97.50;;;;;;5068364;28;20435;-42
2022/05/08 11:59:48;;;;;;;5.73;4.30;;;17.70;97.50;;;;;;5068582;28;20434;-42
2022/05/08 12:02:14;;;;;;;9.93;4.97;;;17.70;96.70;;;;;;5066708;28;20869;-42
2022/05/08 12:04:41;;;;;;;8.13;5.30;;;17.90;97.40;;;;;;5066375;28;20458;-43
2022/05/08 12:07:13;;;;;;;8.20;4.00;;;17.90;97.00;;;;;;5065256;28;20476;-43
2022/05/08 12:09:45;;;;;;;8.80;3.83;;;17.90;97.20;;;;;;5066613;28;20585;-42
2022/05/08 12:12:25;;;;;;;6.73;3.70;;;18.00;97.20;;;;;;5066643;28;20422;-42
2022/05/08 12:15:12;;;;;;;8.47;4.03;;;18.10;97.30;;;;;;5066149;28;20431;-42
2022/05/08 12:17:44;;;;;;;8.20;4.37;;;18.30;96.40;;;;;;5061130;28;20540;-41
2022/05/08 12:20:26;;;;;;;9.33;4.87;;;18.40;96.50;;;;;;5065842;28;20472;-43
2022/05/08 12:23:05;;;;;;;5.80;4.00;;;18.40;96.40;;;;;;5065534;28;20431;-42
2022/05/08 12:25:34;;;;;;;8.83;3.67;;;18.40;96.10;;;;;;5067198;28;20488;-41
2022/05/08 12:28:00;;;;;;;10.67;4.20;;;18.50;97.10;;;;;;5066104;28;20464;-43
2022/05/08 12:30:26;;;;;;;6.77;3.80;;;18.50;94.70;;;;;;5068431;28;20539;-42
2022/05/08 12:32:51;;;;;;;10.00;4.13;;;18.50;95.70;;;;;;5065257;28;21017;-42
2022/05/08 12:35:19;;;;;;;6.33;3.53;;;18.60;95.60;;;;;;5067853;28;20193;-42
2022/05/08 12:37:47;;;;;;;4.70;3.60;;;18.70;95.80;;;;;;5062936;28;20189;-42
2022/05/08 12:40:14;;;;;;;5.93;3.53;;;18.80;95.90;;;;;;5075503;28;20462;-43
2022/05/08 12:42:40;;;;;;;6.50;4.00;;;19.00;95.40;;;;;;5078574;28;20457;-42
2022/05/08 12:45:07;;;;;;;6.67;4.10;;;18.90;94.50;;;;;;5084972;28;20458;-42
2022/05/08 12:47:33;;;;;;;6.97;4.10;;;19.00;93.60;;;;;;5078480;28;20193;-42
2022/05/08 12:49:59;;;;;;;8.77;4.20;;;18.90;95.10;;;;;;5065505;28;20462;-42
2022/05/08 12:52:24;;;;;;;8.93;4.10;;;18.90;93.50;;;;;;5056547;28;20539;-40
2022/05/08 12:54:50;;;;;;;5.07;3.30;;;18.80;93.30;;;;;;5066595;28;20246;-43
2022/05/08 12:59:42;;;;;;;3.90;2.83;;;18.80;92.30;;;;;;5065899;28;20220;-42
2022/05/08 13:00:03;;;;;;;6.37;3.07;;;18.70;91.90;;;;;;5066436;28;20223;-43
2022/05/08 13:02:29;;;;;;;3.90;3.10;;;18.80;92.40;;;;;;5068829;28;20419;-42
2022/05/08 13:04:54;;;;;;;6.60;2.83;;;18.80;92.80;;;;;;5067401;28;20514;-41
2022/05/08 13:07:20;;;;;;;4.60;2.73;;;18.90;92.40;;;;;;5059412;28;20200;-42
2022/05/08 13:09:46;;;;;;;3.90;2.73;;;18.80;91.50;;;;;;5067263;28;20354;-42